sensor_id;sensor_type;location;lat;lon;timestamp;P1;durP1;ratioP1;P2;durP2;ratioP2
17494;SDS011;8864;51.970;4.614;2023-08-06T00:01:04;5.57;;;1.60;;
17494;SDS011;8864;51.970;4.614;2023-08-06T00:03:32;4.90;;;1.52;;
17494;SDS011;8864;51.970;4.614;2023-08-06T00:05:59;1.95;;;1.13;;
17494;SDS011;8864;51.970;4.614;2023-08-06T00:08:26;3.17;;;1.30;;
17494;SDS011;8864;51.970;4.614;2023-08-06T00:10:52;1.60;;;1.17;;
17494;SDS011;8864;51.970;4.614;2023-08-06T00:13:19;2.63;;;1.30;;
17494;SDS011;8864;51.970;4.614;2023-08-06T00:15:46;3.22;;;1.60;;
17494;SDS011;8864;51.970;4.614;2023-08-06T00:18:13;3.50;;;1.45;;
17494;SDS011;8864;51.970;4.614;2023-08-06T00:20:41;3.38;;;1.38;;
17494;SDS011;8864;51.970;4.614;2023-08-06T00:23:08;1.73;;;1.40;;
17494;SDS011;8864;51.970;4.614;2023-08-06T00:25:36;3.00;;;1.50;;
17494;SDS011;8864;51.970;4.614;2023-08-06T00:28:04;2.90;;;1.60;;
17494;SDS011;8864;51.970;4.614;2023-08-06T00:30:31;2.20;;;1.55;;
17494;SDS011;8864;51.970;4.614;2023-08-06T00:32:58;2.70;;;1.50;;
17494;SDS011;8864;51.970;4.614;2023-08-06T00:35:24;3.80;;;1.52;;
17494;SDS011;8864;51.970;4.614;2023-08-06T00:37:53;1.48;;;1.25;;
17494;SDS011;8864;51.970;4.614;2023-08-06T00:40:20;6.22;;;1.50;;
17494;SDS011;8864;51.970;4.614;2023-08-06T00:42:48;2.45;;;1.25;;
17494;SDS011;8864;51.970;4.614;2023-08-06T00:45:15;1.58;;;1.25;;
17494;SDS011;8864;51.970;4.614;2023-08-06T00:47:42;2.15;;;1.10;;
17494;SDS011;8864;51.970;4.614;2023-08-06T00:50:10;3.10;;;1.50;;
17494;SDS011;8864;51.970;4.614;2023-08-06T00:52:37;3.00;;;1.60;;
17494;SDS011;8864;51.970;4.614;2023-08-06T00:55:06;2.25;;;1.50;;
17494;SDS011;8864;51.970;4.614;2023-08-06T00:57:33;1.70;;;1.17;;
17494;SDS011;8864;51.970;4.614;2023-08-06T01:00:01;2.95;;;1.30;;
17494;SDS011;8864;51.970;4.614;2023-08-06T01:02:29;3.40;;;1.52;;
17494;SDS011;8864;51.970;4.614;2023-08-06T01:04:56;4.25;;;1.40;;
17494;SDS011;8864;51.970;4.614;2023-08-06T01:07:27;4.35;;;1.45;;
17494;SDS011;8864;51.970;4.614;2023-08-06T01:10:12;2.80;;;1.50;;
17494;SDS011;8864;51.970;4.614;2023-08-06T01:12:50;2.25;;;1.50;;
17494;SDS011;8864;51.970;4.614;2023-08-06T01:15:22;2.72;;;1.23;;
17494;SDS011;8864;51.970;4.614;2023-08-06T01:17:54;1.70;;;1.40;;
17494;SDS011;8864;51.970;4.614;2023-08-06T01:20:21;2.53;;;1.40;;
17494;SDS011;8864;51.970;4.614;2023-08-06T01:22:49;3.05;;;1.42;;
17494;SDS011;8864;51.970;4.614;2023-08-06T01:25:16;1.55;;;1.13;;
17494;SDS011;8864;51.970;4.614;2023-08-06T01:27:44;3.13;;;1.40;;
17494;SDS011;8864;51.970;4.614;2023-08-06T01:30:15;3.20;;;1.48;;
17494;SDS011;8864;51.970;4.614;2023-08-06T01:32:44;7.32;;;1.60;;
17494;SDS011;8864;51.970;4.614;2023-08-06T01:35:15;2.47;;;1.30;;
17494;SDS011;8864;51.970;4.614;2023-08-06T01:37:43;5.93;;;1.63;;
17494;SDS011;8864;51.970;4.614;2023-08-06T01:40:13;2.75;;;1.27;;
17494;SDS011;8864;51.970;4.614;2023-08-06T01:42:40;3.78;;;1.52;;
17494;SDS011;8864;51.970;4.614;2023-08-06T01:45:07;3.83;;;1.50;;
17494;SDS011;8864;51.970;4.614;2023-08-06T01:47:35;1.58;;;1.20;;
17494;SDS011;8864;51.970;4.614;2023-08-06T01:50:02;1.52;;;1.23;;
17494;SDS011;8864;51.970;4.614;2023-08-06T01:52:30;3.20;;;1.40;;
17494;SDS011;8864;51.970;4.614;2023-08-06T01:54:57;1.80;;;1.23;;
17494;SDS011;8864;51.970;4.614;2023-08-06T01:57:25;4.60;;;1.70;;
17494;SDS011;8864;51.970;4.614;2023-08-06T01:59:52;2.60;;;1.27;;
17494;SDS011;8864;51.970;4.614;2023-08-06T02:02:19;2.28;;;1.38;;
17494;SDS011;8864;51.970;4.614;2023-08-06T02:04:46;1.90;;;1.40;;
17494;SDS011;8864;51.970;4.614;2023-08-06T02:07:13;2.92;;;1.60;;
17494;SDS011;8864;51.970;4.614;2023-08-06T02:09:40;2.00;;;1.58;;
17494;SDS011;8864;51.970;4.614;2023-08-06T02:12:07;2.08;;;1.42;;
17494;SDS011;8864;51.970;4.614;2023-08-06T02:14:35;1.95;;;1.23;;
17494;SDS011;8864;51.970;4.614;2023-08-06T02:17:03;2.47;;;1.70;;
17494;SDS011;8864;51.970;4.614;2023-08-06T02:19:30;2.58;;;1.35;;
17494;SDS011;8864;51.970;4.614;2023-08-06T02:21:57;1.90;;;1.38;;
17494;SDS011;8864;51.970;4.614;2023-08-06T02:24:24;3.10;;;1.50;;
17494;SDS011;8864;51.970;4.614;2023-08-06T02:26:51;2.42;;;1.40;;
17494;SDS011;8864;51.970;4.614;2023-08-06T02:29:20;2.22;;;1.50;;
17494;SDS011;8864;51.970;4.614;2023-08-06T02:31:48;2.33;;;1.55;;
17494;SDS011;8864;51.970;4.614;2023-08-06T02:34:15;6.88;;;1.58;;
17494;SDS011;8864;51.970;4.614;2023-08-06T02:36:42;2.63;;;1.50;;
17494;SDS011;8864;51.970;4.614;2023-08-06T02:39:09;2.55;;;1.42;;
17494;SDS011;8864;51.970;4.614;2023-08-06T02:41:36;3.53;;;1.65;;
17494;SDS011;8864;51.970;4.614;2023-08-06T02:44:03;1.55;;;1.42;;
17494;SDS011;8864;51.970;4.614;2023-08-06T02:46:30;2.88;;;1.67;;
17494;SDS011;8864;51.970;4.614;2023-08-06T02:48:58;3.85;;;1.52;;
17494;SDS011;8864;51.970;4.614;2023-08-06T02:51:25;3.40;;;1.60;;
17494;SDS011;8864;51.970;4.614;2023-08-06T02:53:52;2.03;;;1.20;;
17494;SDS011;8864;51.970;4.614;2023-08-06T02:56:19;2.45;;;1.38;;
17494;SDS011;8864;51.970;4.614;2023-08-06T02:58:46;2.33;;;1.35;;
17494;SDS011;8864;51.970;4.614;2023-08-06T03:01:13;1.88;;;1.40;;
17494;SDS011;8864;51.970;4.614;2023-08-06T03:03:40;4.55;;;1.60;;
17494;SDS011;8864;51.970;4.614;2023-08-06T03:06:08;2.15;;;1.63;;
17494;SDS011;8864;51.970;4.614;2023-08-06T03:08:35;3.75;;;1.58;;
17494;SDS011;8864;51.970;4.614;2023-08-06T03:11:02;2.58;;;1.67;;
17494;SDS011;8864;51.970;4.614;2023-08-06T03:13:29;1.80;;;1.20;;
17494;SDS011;8864;51.970;4.614;2023-08-06T03:15:57;2.03;;;1.27;;
17494;SDS011;8864;51.970;4.614;2023-08-06T03:18:25;4.68;;;1.45;;
17494;SDS011;8864;51.970;4.614;2023-08-06T03:20:52;2.45;;;1.50;;
17494;SDS011;8864;51.970;4.614;2023-08-06T03:23:21;1.83;;;1.50;;
17494;SDS011;8864;51.970;4.614;2023-08-06T03:25:48;2.58;;;1.70;;
17494;SDS011;8864;51.970;4.614;2023-08-06T03:28:15;2.97;;;1.55;;
17494;SDS011;8864;51.970;4.614;2023-08-06T03:30:42;1.73;;;1.50;;
17494;SDS011;8864;51.970;4.614;2023-08-06T03:33:09;2.88;;;1.88;;
17494;SDS011;8864;51.970;4.614;2023-08-06T03:35:36;2.15;;;1.40;;
17494;SDS011;8864;51.970;4.614;2023-08-06T03:38:03;2.63;;;1.60;;
17494;SDS011;8864;51.970;4.614;2023-08-06T03:40:32;3.80;;;1.67;;
17494;SDS011;8864;51.970;4.614;2023-08-06T03:43:01;1.83;;;1.45;;
17494;SDS011;8864;51.970;4.614;2023-08-06T03:45:28;2.13;;;1.20;;
17494;SDS011;8864;51.970;4.614;2023-08-06T03:47:55;1.65;;;1.35;;
17494;SDS011;8864;51.970;4.614;2023-08-06T03:50:22;3.65;;;1.00;;
17494;SDS011;8864;51.970;4.614;2023-08-06T03:52:49;1.83;;;1.10;;
17494;SDS011;8864;51.970;4.614;2023-08-06T03:55:16;1.83;;;1.10;;
17494;SDS011;8864;51.970;4.614;2023-08-06T03:57:44;1.45;;;1.20;;
17494;SDS011;8864;51.970;4.614;2023-08-06T04:00:11;1.73;;;1.02;;
17494;SDS011;8864;51.970;4.614;2023-08-06T04:02:38;1.27;;;0.98;;
17494;SDS011;8864;51.970;4.614;2023-08-06T04:05:06;3.85;;;1.23;;
17494;SDS011;8864;51.970;4.614;2023-08-06T04:07:33;1.85;;;0.88;;
17494;SDS011;8864;51.970;4.614;2023-08-06T04:10:00;1.23;;;0.82;;
17494;SDS011;8864;51.970;4.614;2023-08-06T04:12:30;1.98;;;1.02;;
17494;SDS011;8864;51.970;4.614;2023-08-06T04:15:00;1.05;;;0.90;;
17494;SDS011;8864;51.970;4.614;2023-08-06T04:17:28;1.92;;;1.00;;
17494;SDS011;8864;51.970;4.614;2023-08-06T04:19:55;1.70;;;1.10;;
17494;SDS011;8864;51.970;4.614;2023-08-06T04:22:23;1.67;;;0.80;;
17494;SDS011;8864;51.970;4.614;2023-08-06T04:24:50;2.33;;;1.23;;
17494;SDS011;8864;51.970;4.614;2023-08-06T04:27:18;1.55;;;1.10;;
17494;SDS011;8864;51.970;4.614;2023-08-06T04:29:46;2.38;;;1.08;;
17494;SDS011;8864;51.970;4.614;2023-08-06T04:32:14;2.53;;;0.90;;
17494;SDS011;8864;51.970;4.614;2023-08-06T04:34:42;0.85;;;0.80;;
17494;SDS011;8864;51.970;4.614;2023-08-06T04:37:09;2.45;;;1.13;;
17494;SDS011;8864;51.970;4.614;2023-08-06T04:39:36;2.40;;;1.13;;
17494;SDS011;8864;51.970;4.614;2023-08-06T04:42:03;3.22;;;1.20;;
17494;SDS011;8864;51.970;4.614;2023-08-06T04:44:31;1.70;;;1.20;;
17494;SDS011;8864;51.970;4.614;2023-08-06T04:46:58;2.13;;;1.30;;
17494;SDS011;8864;51.970;4.614;2023-08-06T04:49:26;2.67;;;1.30;;
17494;SDS011;8864;51.970;4.614;2023-08-06T04:51:53;7.22;;;1.20;;
17494;SDS011;8864;51.970;4.614;2023-08-06T04:54:20;2.40;;;1.15;;
17494;SDS011;8864;51.970;4.614;2023-08-06T04:56:47;3.03;;;1.20;;
17494;SDS011;8864;51.970;4.614;2023-08-06T04:59:13;2.72;;;1.02;;
17494;SDS011;8864;51.970;4.614;2023-08-06T05:01:40;2.53;;;1.25;;
17494;SDS011;8864;51.970;4.614;2023-08-06T05:04:07;2.05;;;1.25;;
17494;SDS011;8864;51.970;4.614;2023-08-06T05:06:35;1.67;;;1.08;;
17494;SDS011;8864;51.970;4.614;2023-08-06T05:09:03;1.40;;;1.20;;
17494;SDS011;8864;51.970;4.614;2023-08-06T05:11:31;2.72;;;1.23;;
17494;SDS011;8864;51.970;4.614;2023-08-06T05:13:58;4.32;;;1.30;;
17494;SDS011;8864;51.970;4.614;2023-08-06T05:16:25;3.03;;;1.30;;
17494;SDS011;8864;51.970;4.614;2023-08-06T05:18:52;3.35;;;1.30;;
17494;SDS011;8864;51.970;4.614;2023-08-06T05:21:19;4.13;;;1.58;;
17494;SDS011;8864;51.970;4.614;2023-08-06T05:23:48;2.33;;;1.48;;
17494;SDS011;8864;51.970;4.614;2023-08-06T05:26:15;2.90;;;1.45;;
17494;SDS011;8864;51.970;4.614;2023-08-06T05:28:44;5.90;;;1.40;;
17494;SDS011;8864;51.970;4.614;2023-08-06T05:31:11;3.22;;;1.20;;
17494;SDS011;8864;51.970;4.614;2023-08-06T05:33:38;5.05;;;1.77;;
17494;SDS011;8864;51.970;4.614;2023-08-06T05:36:05;2.70;;;1.30;;
17494;SDS011;8864;51.970;4.614;2023-08-06T05:38:32;8.23;;;1.42;;
17494;SDS011;8864;51.970;4.614;2023-08-06T05:41:00;5.07;;;1.58;;
17494;SDS011;8864;51.970;4.614;2023-08-06T05:43:27;4.07;;;1.40;;
17494;SDS011;8864;51.970;4.614;2023-08-06T05:45:55;3.88;;;1.50;;
17494;SDS011;8864;51.970;4.614;2023-08-06T05:48:22;3.85;;;1.27;;
17494;SDS011;8864;51.970;4.614;2023-08-06T05:50:50;3.15;;;1.40;;
17494;SDS011;8864;51.970;4.614;2023-08-06T05:53:18;5.47;;;1.40;;
17494;SDS011;8864;51.970;4.614;2023-08-06T05:55:45;5.40;;;1.77;;
17494;SDS011;8864;51.970;4.614;2023-08-06T05:58:13;3.70;;;1.50;;
17494;SDS011;8864;51.970;4.614;2023-08-06T06:00:40;8.45;;;1.48;;
17494;SDS011;8864;51.970;4.614;2023-08-06T06:03:07;3.88;;;1.55;;
17494;SDS011;8864;51.970;4.614;2023-08-06T06:05:34;4.05;;;1.40;;
17494;SDS011;8864;51.970;4.614;2023-08-06T06:08:03;3.38;;;1.40;;
17494;SDS011;8864;51.970;4.614;2023-08-06T06:10:30;4.78;;;1.58;;
17494;SDS011;8864;51.970;4.614;2023-08-06T06:12:57;5.25;;;1.70;;
17494;SDS011;8864;51.970;4.614;2023-08-06T06:15:25;3.65;;;1.42;;
17494;SDS011;8864;51.970;4.614;2023-08-06T06:17:52;3.60;;;1.60;;
17494;SDS011;8864;51.970;4.614;2023-08-06T06:20:19;3.95;;;1.70;;
17494;SDS011;8864;51.970;4.614;2023-08-06T06:22:46;3.13;;;1.50;;
17494;SDS011;8864;51.970;4.614;2023-08-06T06:25:13;3.85;;;1.70;;
17494;SDS011;8864;51.970;4.614;2023-08-06T06:27:40;2.50;;;1.30;;
17494;SDS011;8864;51.970;4.614;2023-08-06T06:30:07;3.17;;;1.25;;
17494;SDS011;8864;51.970;4.614;2023-08-06T06:32:38;5.10;;;1.67;;
17494;SDS011;8864;51.970;4.614;2023-08-06T06:35:06;3.50;;;1.45;;
17494;SDS011;8864;51.970;4.614;2023-08-06T06:37:34;3.33;;;1.50;;
17494;SDS011;8864;51.970;4.614;2023-08-06T06:40:01;4.68;;;1.50;;
17494;SDS011;8864;51.970;4.614;2023-08-06T06:42:28;4.18;;;1.08;;
17494;SDS011;8864;51.970;4.614;2023-08-06T06:44:55;4.78;;;1.55;;
17494;SDS011;8864;51.970;4.614;2023-08-06T06:47:22;3.55;;;1.33;;
17494;SDS011;8864;51.970;4.614;2023-08-06T06:49:51;5.43;;;1.60;;
17494;SDS011;8864;51.970;4.614;2023-08-06T06:52:18;2.60;;;1.20;;
17494;SDS011;8864;51.970;4.614;2023-08-06T06:54:46;4.88;;;1.80;;
17494;SDS011;8864;51.970;4.614;2023-08-06T06:57:13;4.65;;;1.10;;
17494;SDS011;8864;51.970;4.614;2023-08-06T06:59:40;2.80;;;1.23;;
17494;SDS011;8864;51.970;4.614;2023-08-06T07:02:07;3.20;;;1.63;;
17494;SDS011;8864;51.970;4.614;2023-08-06T07:04:33;3.38;;;1.20;;
17494;SDS011;8864;51.970;4.614;2023-08-06T07:07:02;7.18;;;1.67;;
17494;SDS011;8864;51.970;4.614;2023-08-06T07:09:29;3.15;;;1.13;;
17494;SDS011;8864;51.970;4.614;2023-08-06T07:11:56;2.50;;;1.15;;
17494;SDS011;8864;51.970;4.614;2023-08-06T07:14:24;2.30;;;1.08;;
17494;SDS011;8864;51.970;4.614;2023-08-06T07:16:51;2.33;;;1.30;;
17494;SDS011;8864;51.970;4.614;2023-08-06T07:19:18;3.75;;;1.48;;
17494;SDS011;8864;51.970;4.614;2023-08-06T07:21:45;2.08;;;1.02;;
17494;SDS011;8864;51.970;4.614;2023-08-06T07:24:14;2.92;;;1.38;;
17494;SDS011;8864;51.970;4.614;2023-08-06T07:26:40;3.00;;;1.15;;
17494;SDS011;8864;51.970;4.614;2023-08-06T07:29:07;2.38;;;1.02;;
17494;SDS011;8864;51.970;4.614;2023-08-06T07:31:34;1.33;;;0.80;;
17494;SDS011;8864;51.970;4.614;2023-08-06T07:34:01;3.17;;;1.15;;
17494;SDS011;8864;51.970;4.614;2023-08-06T07:36:28;4.25;;;1.20;;
17494;SDS011;8864;51.970;4.614;2023-08-06T07:38:56;1.73;;;0.88;;
17494;SDS011;8864;51.970;4.614;2023-08-06T07:41:24;7.28;;;1.38;;
17494;SDS011;8864;51.970;4.614;2023-08-06T07:43:51;6.28;;;2.17;;
17494;SDS011;8864;51.970;4.614;2023-08-06T07:46:18;1.77;;;1.20;;
17494;SDS011;8864;51.970;4.614;2023-08-06T07:48:45;7.15;;;1.55;;
17494;SDS011;8864;51.970;4.614;2023-08-06T07:51:11;5.03;;;1.50;;
17494;SDS011;8864;51.970;4.614;2023-08-06T07:53:38;3.08;;;1.30;;
17494;SDS011;8864;51.970;4.614;2023-08-06T07:56:05;3.28;;;1.17;;
17494;SDS011;8864;51.970;4.614;2023-08-06T07:58:33;3.10;;;1.27;;
17494;SDS011;8864;51.970;4.614;2023-08-06T08:01:01;3.83;;;1.25;;
17494;SDS011;8864;51.970;4.614;2023-08-06T08:03:28;3.20;;;1.23;;
17494;SDS011;8864;51.970;4.614;2023-08-06T08:05:57;3.97;;;1.15;;
17494;SDS011;8864;51.970;4.614;2023-08-06T08:08:24;7.47;;;1.20;;
17494;SDS011;8864;51.970;4.614;2023-08-06T08:10:51;4.13;;;1.52;;
17494;SDS011;8864;51.970;4.614;2023-08-06T08:13:20;6.07;;;1.83;;
17494;SDS011;8864;51.970;4.614;2023-08-06T08:15:48;3.45;;;1.42;;
17494;SDS011;8864;51.970;4.614;2023-08-06T08:18:15;3.42;;;1.42;;
17494;SDS011;8864;51.970;4.614;2023-08-06T08:20:42;4.53;;;1.67;;
17494;SDS011;8864;51.970;4.614;2023-08-06T08:23:10;4.78;;;1.77;;
17494;SDS011;8864;51.970;4.614;2023-08-06T08:25:37;2.85;;;1.40;;
17494;SDS011;8864;51.970;4.614;2023-08-06T08:28:04;5.22;;;2.08;;
17494;SDS011;8864;51.970;4.614;2023-08-06T08:30:31;3.63;;;1.50;;
17494;SDS011;8864;51.970;4.614;2023-08-06T08:32:59;3.05;;;1.65;;
17494;SDS011;8864;51.970;4.614;2023-08-06T08:35:26;6.97;;;1.80;;
17494;SDS011;8864;51.970;4.614;2023-08-06T08:37:53;2.28;;;1.48;;
17494;SDS011;8864;51.970;4.614;2023-08-06T08:40:20;3.72;;;1.55;;
17494;SDS011;8864;51.970;4.614;2023-08-06T08:42:52;6.05;;;1.40;;
17494;SDS011;8864;51.970;4.614;2023-08-06T08:45:20;4.88;;;1.38;;
17494;SDS011;8864;51.970;4.614;2023-08-06T08:47:50;2.90;;;1.10;;
17494;SDS011;8864;51.970;4.614;2023-08-06T08:50:19;2.30;;;1.33;;
17494;SDS011;8864;51.970;4.614;2023-08-06T08:52:47;2.75;;;1.50;;
17494;SDS011;8864;51.970;4.614;2023-08-06T08:55:17;2.92;;;1.25;;
17494;SDS011;8864;51.970;4.614;2023-08-06T08:57:46;6.07;;;1.63;;
17494;SDS011;8864;51.970;4.614;2023-08-06T09:00:13;4.53;;;1.58;;
17494;SDS011;8864;51.970;4.614;2023-08-06T09:02:40;3.60;;;1.23;;
17494;SDS011;8864;51.970;4.614;2023-08-06T09:05:08;1.55;;;1.17;;
17494;SDS011;8864;51.970;4.614;2023-08-06T09:07:39;14.13;;;1.98;;
17494;SDS011;8864;51.970;4.614;2023-08-06T09:10:10;11.23;;;1.92;;
17494;SDS011;8864;51.970;4.614;2023-08-06T09:12:38;8.60;;;2.78;;
17494;SDS011;8864;51.970;4.614;2023-08-06T09:15:06;11.55;;;2.88;;
17494;SDS011;8864;51.970;4.614;2023-08-06T09:17:33;11.00;;;2.72;;
17494;SDS011;8864;51.970;4.614;2023-08-06T09:20:08;10.25;;;2.20;;
17494;SDS011;8864;51.970;4.614;2023-08-06T09:22:36;10.18;;;2.88;;
17494;SDS011;8864;51.970;4.614;2023-08-06T09:25:05;18.42;;;2.67;;
17494;SDS011;8864;51.970;4.614;2023-08-06T09:27:35;7.22;;;2.08;;
17494;SDS011;8864;51.970;4.614;2023-08-06T09:30:03;7.72;;;1.58;;
17494;SDS011;8864;51.970;4.614;2023-08-06T09:32:41;7.07;;;2.00;;
17494;SDS011;8864;51.970;4.614;2023-08-06T09:35:15;5.55;;;1.90;;
17494;SDS011;8864;51.970;4.614;2023-08-06T09:37:42;6.10;;;1.85;;
17494;SDS011;8864;51.970;4.614;2023-08-06T09:42:54;4.93;;;1.70;;
17494;SDS011;8864;51.970;4.614;2023-08-06T09:45:21;6.35;;;1.73;;
17494;SDS011;8864;51.970;4.614;2023-08-06T09:47:48;6.40;;;1.73;;
17494;SDS011;8864;51.970;4.614;2023-08-06T09:50:16;5.95;;;1.50;;
17494;SDS011;8864;51.970;4.614;2023-08-06T09:52:44;4.05;;;1.45;;
17494;SDS011;8864;51.970;4.614;2023-08-06T09:55:12;4.30;;;1.58;;
17494;SDS011;8864;51.970;4.614;2023-08-06T09:57:41;9.10;;;1.52;;
17494;SDS011;8864;51.970;4.614;2023-08-06T10:00:10;3.85;;;1.55;;
17494;SDS011;8864;51.970;4.614;2023-08-06T10:02:38;3.38;;;1.23;;
17494;SDS011;8864;51.970;4.614;2023-08-06T10:05:06;5.93;;;1.38;;
17494;SDS011;8864;51.970;4.614;2023-08-06T10:07:34;5.40;;;1.55;;
17494;SDS011;8864;51.970;4.614;2023-08-06T10:10:04;2.80;;;1.35;;
17494;SDS011;8864;51.970;4.614;2023-08-06T10:12:32;5.53;;;1.00;;
17494;SDS011;8864;51.970;4.614;2023-08-06T10:15:04;4.57;;;1.40;;
17494;SDS011;8864;51.970;4.614;2023-08-06T10:17:34;5.28;;;1.27;;
17494;SDS011;8864;51.970;4.614;2023-08-06T10:20:03;3.03;;;1.00;;
17494;SDS011;8864;51.970;4.614;2023-08-06T10:22:32;3.17;;;1.10;;
17494;SDS011;8864;51.970;4.614;2023-08-06T10:25:00;2.13;;;1.05;;
17494;SDS011;8864;51.970;4.614;2023-08-06T10:27:30;3.35;;;1.30;;
17494;SDS011;8864;51.970;4.614;2023-08-06T10:32:50;1.75;;;1.20;;
17494;SDS011;8864;51.970;4.614;2023-08-06T10:35:27;2.03;;;1.00;;
17494;SDS011;8864;51.970;4.614;2023-08-06T10:37:59;3.95;;;1.30;;
17494;SDS011;8864;51.970;4.614;2023-08-06T10:40:29;3.72;;;1.45;;
17494;SDS011;8864;51.970;4.614;2023-08-06T10:42:58;1.40;;;1.08;;
17494;SDS011;8864;51.970;4.614;2023-08-06T10:45:28;2.92;;;1.27;;
17494;SDS011;8864;51.970;4.614;2023-08-06T10:47:55;1.10;;;0.80;;
17494;SDS011;8864;51.970;4.614;2023-08-06T10:50:23;1.58;;;1.13;;
17494;SDS011;8864;51.970;4.614;2023-08-06T10:52:51;2.42;;;1.10;;
17494;SDS011;8864;51.970;4.614;2023-08-06T10:55:24;2.35;;;1.10;;
17494;SDS011;8864;51.970;4.614;2023-08-06T10:57:53;2.65;;;1.33;;
17494;SDS011;8864;51.970;4.614;2023-08-06T11:00:22;1.85;;;1.02;;
17494;SDS011;8864;51.970;4.614;2023-08-06T11:02:51;1.67;;;0.90;;
17494;SDS011;8864;51.970;4.614;2023-08-06T11:05:19;3.25;;;1.20;;
17494;SDS011;8864;51.970;4.614;2023-08-06T11:07:48;2.10;;;0.90;;
17494;SDS011;8864;51.970;4.614;2023-08-06T11:10:16;2.83;;;1.40;;
17494;SDS011;8864;51.970;4.614;2023-08-06T11:12:43;5.28;;;1.38;;
17494;SDS011;8864;51.970;4.614;2023-08-06T11:15:10;1.88;;;1.20;;
17494;SDS011;8864;51.970;4.614;2023-08-06T11:17:37;3.05;;;1.20;;
17494;SDS011;8864;51.970;4.614;2023-08-06T11:20:11;4.45;;;1.30;;
17494;SDS011;8864;51.970;4.614;2023-08-06T11:22:38;3.30;;;1.10;;
17494;SDS011;8864;51.970;4.614;2023-08-06T11:25:06;1.58;;;1.10;;
17494;SDS011;8864;51.970;4.614;2023-08-06T11:27:33;2.38;;;1.23;;
17494;SDS011;8864;51.970;4.614;2023-08-06T11:30:00;2.83;;;1.20;;
17494;SDS011;8864;51.970;4.614;2023-08-06T11:32:27;2.90;;;1.08;;
17494;SDS011;8864;51.970;4.614;2023-08-06T11:34:54;2.67;;;1.00;;
17494;SDS011;8864;51.970;4.614;2023-08-06T11:37:23;3.88;;;1.20;;
17494;SDS011;8864;51.970;4.614;2023-08-06T11:39:51;3.58;;;1.33;;
17494;SDS011;8864;51.970;4.614;2023-08-06T11:42:18;2.28;;;1.20;;
17494;SDS011;8864;51.970;4.614;2023-08-06T11:44:45;4.55;;;1.20;;
17494;SDS011;8864;51.970;4.614;2023-08-06T11:47:13;3.42;;;1.02;;
17494;SDS011;8864;51.970;4.614;2023-08-06T11:49:42;2.85;;;1.30;;
17494;SDS011;8864;51.970;4.614;2023-08-06T11:52:13;1.85;;;1.00;;
17494;SDS011;8864;51.970;4.614;2023-08-06T11:54:42;2.08;;;1.25;;
17494;SDS011;8864;51.970;4.614;2023-08-06T11:57:10;2.33;;;1.10;;
17494;SDS011;8864;51.970;4.614;2023-08-06T11:59:36;2.42;;;1.10;;
17494;SDS011;8864;51.970;4.614;2023-08-06T12:02:04;1.83;;;1.15;;
17494;SDS011;8864;51.970;4.614;2023-08-06T12:04:31;2.60;;;1.10;;
17494;SDS011;8864;51.970;4.614;2023-08-06T12:07:17;1.60;;;0.80;;
17494;SDS011;8864;51.970;4.614;2023-08-06T12:09:45;3.97;;;1.13;;
17494;SDS011;8864;51.970;4.614;2023-08-06T12:12:12;2.65;;;0.82;;
17494;SDS011;8864;51.970;4.614;2023-08-06T12:14:39;3.78;;;1.10;;
17494;SDS011;8864;51.970;4.614;2023-08-06T12:17:06;3.60;;;0.95;;
17494;SDS011;8864;51.970;4.614;2023-08-06T12:19:33;1.45;;;0.80;;
17494;SDS011;8864;51.970;4.614;2023-08-06T12:22:01;2.35;;;0.95;;
17494;SDS011;8864;51.970;4.614;2023-08-06T12:24:28;3.50;;;1.05;;
17494;SDS011;8864;51.970;4.614;2023-08-06T12:26:58;3.03;;;0.98;;
17494;SDS011;8864;51.970;4.614;2023-08-06T12:29:27;3.72;;;0.80;;
17494;SDS011;8864;51.970;4.614;2023-08-06T12:31:54;3.45;;;0.82;;
17494;SDS011;8864;51.970;4.614;2023-08-06T12:34:21;1.83;;;1.10;;
17494;SDS011;8864;51.970;4.614;2023-08-06T12:36:48;4.05;;;0.90;;
17494;SDS011;8864;51.970;4.614;2023-08-06T12:39:14;2.47;;;0.80;;
17494;SDS011;8864;51.970;4.614;2023-08-06T12:41:41;2.13;;;1.00;;
17494;SDS011;8864;51.970;4.614;2023-08-06T12:44:12;0.60;;;0.60;;
17494;SDS011;8864;51.970;4.614;2023-08-06T12:46:39;1.15;;;0.75;;
17494;SDS011;8864;51.970;4.614;2023-08-06T12:49:06;1.13;;;0.50;;
17494;SDS011;8864;51.970;4.614;2023-08-06T12:51:33;4.72;;;0.80;;
17494;SDS011;8864;51.970;4.614;2023-08-06T12:54:00;3.22;;;0.70;;
17494;SDS011;8864;51.970;4.614;2023-08-06T12:56:27;3.55;;;0.90;;
17494;SDS011;8864;51.970;4.614;2023-08-06T12:58:54;2.08;;;0.70;;
17494;SDS011;8864;51.970;4.614;2023-08-06T13:01:22;3.50;;;0.85;;
17494;SDS011;8864;51.970;4.614;2023-08-06T13:03:49;1.65;;;0.60;;
17494;SDS011;8864;51.970;4.614;2023-08-06T13:06:16;5.88;;;0.90;;
17494;SDS011;8864;51.970;4.614;2023-08-06T13:08:43;2.20;;;0.60;;
17494;SDS011;8864;51.970;4.614;2023-08-06T13:11:10;3.92;;;0.73;;
17494;SDS011;8864;51.970;4.614;2023-08-06T13:13:37;3.45;;;0.90;;
17494;SDS011;8864;51.970;4.614;2023-08-06T13:16:04;3.20;;;0.70;;
17494;SDS011;8864;51.970;4.614;2023-08-06T13:18:32;2.92;;;0.63;;
17494;SDS011;8864;51.970;4.614;2023-08-06T13:20:59;4.53;;;0.80;;
17494;SDS011;8864;51.970;4.614;2023-08-06T13:23:26;6.10;;;1.10;;
17494;SDS011;8864;51.970;4.614;2023-08-06T13:25:53;1.90;;;0.60;;
17494;SDS011;8864;51.970;4.614;2023-08-06T13:28:20;3.92;;;0.77;;
17494;SDS011;8864;51.970;4.614;2023-08-06T13:30:47;1.58;;;0.60;;
17494;SDS011;8864;51.970;4.614;2023-08-06T13:33:14;1.40;;;0.77;;
17494;SDS011;8864;51.970;4.614;2023-08-06T13:35:43;1.95;;;0.57;;
17494;SDS011;8864;51.970;4.614;2023-08-06T13:38:10;1.70;;;0.55;;
17494;SDS011;8864;51.970;4.614;2023-08-06T13:40:37;1.38;;;0.60;;
17494;SDS011;8864;51.970;4.614;2023-08-06T13:43:04;2.22;;;0.50;;
17494;SDS011;8864;51.970;4.614;2023-08-06T13:45:30;1.63;;;0.50;;
17494;SDS011;8864;51.970;4.614;2023-08-06T13:47:59;5.30;;;0.70;;
17494;SDS011;8864;51.970;4.614;2023-08-06T13:50:26;1.60;;;0.60;;
17494;SDS011;8864;51.970;4.614;2023-08-06T13:52:55;0.82;;;0.50;;
17494;SDS011;8864;51.970;4.614;2023-08-06T13:55:22;3.83;;;1.00;;
17494;SDS011;8864;51.970;4.614;2023-08-06T13:57:49;2.63;;;0.60;;
17494;SDS011;8864;51.970;4.614;2023-08-06T14:00:16;2.83;;;0.70;;
17494;SDS011;8864;51.970;4.614;2023-08-06T14:02:43;10.07;;;1.38;;
17494;SDS011;8864;51.970;4.614;2023-08-06T14:05:10;4.18;;;1.20;;
17494;SDS011;8864;51.970;4.614;2023-08-06T14:07:37;10.25;;;1.40;;
17494;SDS011;8864;51.970;4.614;2023-08-06T14:10:06;6.00;;;1.08;;
17494;SDS011;8864;51.970;4.614;2023-08-06T14:12:34;5.50;;;1.30;;
17494;SDS011;8864;51.970;4.614;2023-08-06T14:15:01;11.43;;;1.80;;
17494;SDS011;8864;51.970;4.614;2023-08-06T14:17:29;7.72;;;2.20;;
17494;SDS011;8864;51.970;4.614;2023-08-06T14:19:56;8.35;;;1.80;;
17494;SDS011;8864;51.970;4.614;2023-08-06T14:22:23;10.93;;;1.88;;
17494;SDS011;8864;51.970;4.614;2023-08-06T14:24:53;11.98;;;1.90;;
17494;SDS011;8864;51.970;4.614;2023-08-06T14:27:22;10.60;;;2.13;;
17494;SDS011;8864;51.970;4.614;2023-08-06T14:29:49;11.23;;;1.55;;
17494;SDS011;8864;51.970;4.614;2023-08-06T14:32:17;9.48;;;1.27;;
17494;SDS011;8864;51.970;4.614;2023-08-06T14:34:44;10.05;;;1.73;;
17494;SDS011;8864;51.970;4.614;2023-08-06T14:37:11;9.40;;;1.77;;
17494;SDS011;8864;51.970;4.614;2023-08-06T14:39:38;9.30;;;1.55;;
17494;SDS011;8864;51.970;4.614;2023-08-06T14:42:05;4.90;;;1.00;;
17494;SDS011;8864;51.970;4.614;2023-08-06T14:44:34;3.67;;;1.27;;
17494;SDS011;8864;51.970;4.614;2023-08-06T14:47:01;6.10;;;1.10;;
17494;SDS011;8864;51.970;4.614;2023-08-06T14:49:28;3.92;;;1.15;;
17494;SDS011;8864;51.970;4.614;2023-08-06T14:51:55;4.35;;;1.30;;
17494;SDS011;8864;51.970;4.614;2023-08-06T14:54:24;5.50;;;1.10;;
17494;SDS011;8864;51.970;4.614;2023-08-06T14:56:52;5.03;;;1.40;;
17494;SDS011;8864;51.970;4.614;2023-08-06T14:59:19;4.95;;;1.00;;
17494;SDS011;8864;51.970;4.614;2023-08-06T15:01:48;5.50;;;1.05;;
17494;SDS011;8864;51.970;4.614;2023-08-06T15:04:16;3.03;;;0.93;;
17494;SDS011;8864;51.970;4.614;2023-08-06T15:06:43;4.35;;;1.05;;
17494;SDS011;8864;51.970;4.614;2023-08-06T15:09:11;5.90;;;1.00;;